College Point, New York
Current Conditions -  °F | °C
As of 8:51 AM on Thursday 30 Oct 2014 (Local Time) from KLGA Reporting Station
Scattered Clouds Scattered Clouds  
Wind Chill: 53°   Ceiling: Unl
Heat Index: 53°   Visibility: 10mi
Dew Point: 43°   Wind: 10mph
Humidity: 69%   Direction: 320°NW
Pressure: 29.99"   Gusts: NA
Location:  40.79°N, 73.85°W
Report Text: KLGA 301251Z 32009KT 10SM SCT065 SCT170 12/06 A2999 RMK AO2 SLP156 T01170061
Loading
Personal Weather Stations






























Interactive Weather Map
Tropical Storm Tracking
New forecast layout! Learn more

10-Day Weather Forecast

Advertisements
Track Severe Weather on mobile